Terminal Aerodrome Forecast
Issued by NWS Albuquerque, NM

Home | Current Version | Previous Version | Text Only | Print | Product List | Glossary On
Versions: 1 2 3 4 5 6 7 8 9 10 11 12 13 14 15 16 17 18 19 20 21 22 23 24 25 26 27 28 29 30 31 32 33 34 35 36 37 38 39 40 41 42 43 44 45 46 47 48 49 50
000
FTUS45 KABQ 230540
TAFABQ
TAF
KABQ 230540Z 2306/2406 31010KT P6SM BKN080
     FM230800 09013KT P6SM BKN080
     FM231500 14009KT P6SM BKN050
     FM232100 17011KT P6SM VCTS BKN060CB
     FM240000 15014KT P6SM BKN060=

USA.gov is the U.S. government's official web portal to all federal, state and local government web resources and services.